KLCG

Wayne Municipal/ Stan Morris Field Airport

Wayne, Nebraska, USA
METAR KLCG 180815Z AUTO 20004KT 10SM CLR M05/M05 A2990 RMK AO2 T10501055
Observed Flight Rules
Dec-18 @ 08:15 UTC (32 minutes ago) Visual Flight Rules
Wind Visibility Clouds
200° at 4 knots 10 miles
  • Clear skies
Temperatures Readings
Current -5°C / 23°F
Dewpoint -6°C / 21°F
Humidity 93%
Altimeter 29.9" Hg
Pressure 1013 hPa
Elevation 436
METAR KLCG 180815Z AUTO 20004KT 10SM CLR M05/M05 A2990 RMK AO2 T10501055
Observed Flight Rules
Dec-18 @ 08:15 UTC
(32 minutes ago)
VFR
Wind Visibility
200° at 4 knots 10 miles
Clouds
  • Clear skies
Temperature Dewpoint
-5°C / 23°F -6°C / 21°F
Humidity Altimeter Pressure
93% 29.9" Hg 1013 hPa